Time;durP1;ratioP1;P1;durP2;ratioP2;P2;SDS_P1;SDS_P2;PMS_P1;PMS_P2;Temp;Humidity;BMP_temperature;BMP_pressure;BME280_temperature;BME280_humidity;BME280_pressure;Samples;Min_cycle;Max_cycle;Signal;HPM_P1;HPM_P2
2022/02/15 00:04:15;;;;;;;10.95;6.32;;;;;;;4.85;100.00;99788.31;20981577;28;20045;-65
2022/02/15 00:14:17;;;;;;;14.93;8.40;;;;;;;4.73;100.00;99791.78;20981206;28;20490;-65
2022/02/15 00:24:21;;;;;;;13.68;7.95;;;;;;;4.51;100.00;99785.78;20993126;28;20136;-66
2022/02/15 00:34:23;;;;;;;12.57;7.50;;;;;;;4.40;100.00;99794.41;21007996;28;20049;-64
2022/02/15 00:44:26;;;;;;;11.85;6.82;;;;;;;4.32;100.00;99795.28;21007716;28;20106;-66
2022/02/15 00:54:28;;;;;;;12.68;6.80;;;;;;;4.26;100.00;99800.47;21002794;28;20056;-65
2022/02/15 01:04:30;;;;;;;11.55;6.50;;;;;;;4.08;100.00;99808.25;21007012;28;20138;-65
2022/02/15 01:14:31;;;;;;;12.98;7.05;;;;;;;4.11;100.00;99788.38;21007073;28;20052;-65
2022/02/15 01:24:33;;;;;;;14.70;7.35;;;;;;;4.37;100.00;99805.66;21001872;28;20103;-65
2022/02/15 01:34:34;;;;;;;12.50;7.18;;;;;;;4.51;100.00;99803.94;21000367;28;20486;-65
2022/02/15 01:44:36;;;;;;;14.25;7.65;;;;;;;4.65;100.00;99811.69;20991938;28;20051;-65
2022/02/15 01:54:38;;;;;;;13.93;7.57;;;;;;;4.73;100.00;99817.72;20985845;28;20142;-65
2022/02/15 02:15:04;;;;;;;12.77;7.15;;;;;;;4.91;100.00;99801.25;20986475;28;20110;-65
2022/02/15 02:25:06;;;;;;;12.25;6.53;;;;;;;4.99;100.00;99809.03;20989078;28;20106;-65
2022/02/15 02:35:09;;;;;;;10.93;6.22;;;;;;;5.08;100.00;99809.00;20987722;28;20493;-65
2022/02/15 02:45:14;;;;;;;10.63;5.78;;;;;;;5.15;100.00;99813.31;20987309;28;20067;-65
2022/02/15 02:55:15;;;;;;;9.57;5.07;;;;;;;5.24;100.00;99809.81;20976249;28;20052;-65
2022/02/15 03:05:17;;;;;;;9.13;4.72;;;;;;;5.26;100.00;99813.25;20985407;28;20044;-64
2022/02/15 03:15:18;;;;;;;8.63;4.65;;;;;;;5.27;100.00;99818.47;20985325;28;20060;-64
2022/02/15 03:25:20;;;;;;;9.65;4.70;;;;;;;5.30;100.00;99817.56;20984011;28;20048;-64
2022/02/15 03:35:21;;;;;;;10.68;4.80;;;;;;;5.35;100.00;99832.25;20983055;28;20052;-64
2022/02/15 03:45:23;;;;;;;12.00;5.05;;;;;;;5.43;100.00;99859.94;20981637;28;20091;-65
2022/02/15 03:55:24;;;;;;;9.40;4.20;;;;;;;5.41;100.00;99867.72;20981850;28;20460;-65
2022/02/15 04:05:27;;;;;;;10.20;4.20;;;;;;;5.45;100.00;99884.16;20981140;28;20044;-65
2022/02/15 04:15:28;;;;;;;11.32;5.05;;;;;;;5.47;100.00;99892.81;20980897;28;20606;-65
2022/02/15 04:25:33;;;;;;;10.02;4.78;;;;;;;5.49;100.00;99898.84;20981009;28;20397;-64
2022/02/15 04:35:34;;;;;;;11.27;4.65;;;;;;;5.53;100.00;99919.63;20980478;28;20048;-64
2022/02/15 04:45:36;;;;;;;12.75;5.65;;;;;;;5.53;100.00;99913.56;20979557;28;20083;-64
2022/02/15 04:55:37;;;;;;;8.75;4.75;;;;;;;5.51;100.00;99936.06;20979615;28;20387;-64
2022/02/15 05:05:38;;;;;;;10.55;4.80;;;;;;;5.55;100.00;99948.16;20979019;28;20057;-64
2022/02/15 05:15:40;;;;;;;10.02;4.90;;;;;;;5.53;100.00;99945.59;20992265;28;20413;-68
2022/02/15 05:25:41;;;;;;;9.45;4.60;;;;;;;5.40;100.00;99942.13;20981509;28;20056;-65
2022/02/15 05:35:43;;;;;;;11.35;5.50;;;;;;;5.35;100.00;99945.63;20992655;28;20088;-65
2022/02/15 05:45:44;;;;;;;11.38;5.78;;;;;;;5.28;100.00;99955.16;20991530;28;20052;-64
2022/02/15 05:55:48;;;;;;;10.65;5.85;;;;;;;5.22;100.00;99952.59;20990825;28;20053;-66
2022/02/15 06:05:49;;;;;;;13.35;7.40;;;;;;;5.26;100.00;99966.41;20990613;28;20041;-65
2022/02/15 06:15:51;;;;;;;12.07;6.43;;;;;;;5.32;100.00;99998.41;20991220;28;20052;-64
2022/02/15 06:25:52;;;;;;;14.27;6.65;;;;;;;5.33;100.00;100020.91;20988209;28;20090;-65
2022/02/15 06:35:54;;;;;;;14.30;5.93;;;;;;;5.43;100.00;100026.09;20983689;28;20052;-64
2022/02/15 06:45:57;;;;;;;10.73;5.45;;;;;;;5.44;100.00;100046.00;20986658;28;20724;-64
2022/02/15 06:55:59;;;;;;;15.07;6.60;;;;;;;5.47;100.00;100059.84;20986126;28;20053;-65
2022/02/15 07:06:02;;;;;;;20.63;10.35;;;;;;;5.56;100.00;100084.97;20985047;28;20083;-65
2022/02/15 07:16:04;;;;;;;13.70;7.43;;;;;;;5.58;100.00;100091.00;20984622;28;20048;-64
2022/02/15 07:26:05;;;;;;;12.90;6.97;;;;;;;5.67;100.00;100103.97;20983707;28;20040;-65
2022/02/15 07:36:07;;;;;;;11.68;6.30;;;;;;;5.76;100.00;100119.56;20982314;28;20048;-68
2022/02/15 07:46:08;;;;;;;10.25;6.00;;;;;;;5.84;100.00;100124.72;20981172;28;20053;-69
2022/02/15 07:56:11;;;;;;;13.73;6.72;;;;;;;5.72;100.00;100133.41;20979349;28;20044;-66
2022/02/15 08:06:12;;;;;;;12.05;6.95;;;;;;;5.98;100.00;100155.94;20944135;28;20482;-68
2022/02/15 08:16:13;;;;;;;14.30;7.40;;;;;;;6.22;100.00;100166.31;20935257;28;20044;-69
2022/02/15 08:26:15;;;;;;;12.52;7.20;;;;;;;6.35;100.00;100168.00;20936782;28;20044;-68
2022/02/15 08:36:16;;;;;;;13.30;6.53;;;;;;;6.45;100.00;100173.19;20934214;28;20109;-72
2022/02/15 08:46:18;;;;;;;11.35;5.85;;;;;;;6.37;100.00;100192.28;20973795;28;20056;-68
2022/02/15 08:56:21;;;;;;;10.43;5.72;;;;;;;6.43;100.00;100207.88;20976139;22;20068;-75
2022/02/15 09:06:23;;;;;;;11.13;6.00;;;;;;;6.71;100.00;100227.75;20948342;28;20044;-74
2022/02/15 09:16:25;;;;;;;9.82;4.93;;;;;;;7.20;96.28;100239.72;20951638;28;20056;-73
2022/02/15 09:26:26;;;;;;;8.82;4.30;;;;;;;8.09;92.20;100243.47;20944226;28;20049;-76
2022/02/15 09:36:28;;;;;;;32.00;5.50;;;;;;;8.04;90.56;100253.94;20943952;28;20045;-75
2022/02/15 09:46:31;;;;;;;6.60;3.30;;;;;;;8.00;89.90;100264.41;20944441;28;20055;-75
2022/02/15 09:56:33;;;;;;;10.75;3.65;;;;;;;8.05;88.64;100278.28;20943784;28;20048;-75
2022/02/15 10:06:40;;;;;;;6.70;4.32;;;;;;;8.05;89.30;100283.50;20943442;28;20413;-76
2022/02/15 10:16:46;;;;;;;6.40;3.67;;;;;;;8.44;88.44;100287.59;20945009;28;20059;-76
2022/02/15 10:27:02;;;;;;;6.47;3.20;;;;;;;8.53;89.34;100291.81;20943268;28;20045;-74
2022/02/15 10:37:05;;;;;;;6.75;3.40;;;;;;;8.48;83.49;100287.53;20945313;28;20053;-73
2022/02/15 10:47:08;;;;;;;8.65;3.40;;;;;;;8.48;85.77;100294.50;20954222;28;20045;-75
2022/02/15 10:57:15;;;;;;;5.30;3.00;;;;;;;8.35;85.42;100308.50;20958826;28;20060;-75
2022/02/15 11:07:19;;;;;;;7.57;3.30;;;;;;;8.64;85.67;100308.28;20950278;28;20048;-75
2022/02/15 11:17:26;;;;;;;5.83;2.50;;;;;;;8.83;81.70;100303.75;20938541;28;20148;-75
2022/02/15 11:27:33;;;;;;;6.65;3.47;;;;;;;8.81;83.23;100316.78;20936724;28;20182;-75
2022/02/15 11:37:34;;;;;;;6.18;2.72;;;;;;;8.58;81.38;100310.94;20934671;28;20061;-75
2022/02/15 11:47:43;;;;;;;5.95;3.13;;;;;;;8.51;82.20;100319.69;20933024;28;20048;-76
2022/02/15 11:57:46;;;;;;;6.40;2.38;;;;;;;8.72;84.47;100315.16;20937924;28;20560;-76
2022/02/15 12:07:48;;;;;;;9.23;2.70;;;;;;;8.67;82.14;100310.84;20935809;28;20044;-77
2022/02/15 12:17:50;;;;;;;4.60;1.80;;;;;;;8.86;77.47;100312.41;20934221;28;20062;-75
2022/02/15 12:27:52;;;;;;;5.13;1.67;;;;;;;8.96;73.00;100311.44;20934701;28;20051;-76
2022/02/15 12:37:59;;;;;;;4.05;1.85;;;;;;;9.02;71.01;100309.63;20932756;28;20454;-76
2022/02/15 12:48:01;;;;;;;5.57;1.88;;;;;;;9.07;66.99;100315.69;20929431;28;20544;-76
2022/02/15 12:58:03;;;;;;;8.02;1.80;;;;;;;9.16;66.22;100312.97;20933582;28;20053;-77
2022/02/15 13:08:15;;;;;;;4.10;1.50;;;;;;;8.79;62.87;100318.56;20931096;28;20049;-74
2022/02/15 13:18:16;;;;;;;4.85;1.40;;;;;;;8.81;62.12;100314.19;20933436;28;20048;-76
2022/02/15 13:28:20;;;;;;;5.60;1.40;;;;;;;8.77;61.51;100306.38;20931050;28;20118;-74
2022/02/15 13:38:23;;;;;;;4.18;1.40;;;;;;;8.78;65.09;100310.75;20944839;28;20056;-74
2022/02/15 13:48:25;;;;;;;4.25;1.40;;;;;;;8.86;62.71;100301.06;20942083;28;20098;-75
2022/02/15 13:58:26;;;;;;;5.30;1.30;;;;;;;8.70;61.41;100296.03;20951649;28;20067;-78
2022/02/15 14:08:28;;;;;;;3.15;1.00;;;;;;;8.43;59.89;100310.19;20959607;28;20045;-77
2022/02/15 14:18:29;;;;;;;6.70;1.50;;;;;;;8.39;60.82;100313.72;20949028;28;20057;-77
2022/02/15 14:28:31;;;;;;;3.20;1.10;;;;;;;8.77;57.53;100309.00;20944667;28;20083;-77
2022/02/15 14:38:32;;;;;;;7.65;2.72;;;;;;;8.84;58.97;100302.84;20952349;28;20097;-79
2022/02/15 14:48:34;;;;;;;3.85;1.10;;;;;;;8.73;59.52;100305.56;20962065;28;20060;-83
2022/02/15 14:58:38;;;;;;;2.70;1.02;;;;;;;8.88;57.54;100294.97;20964393;23;20049;-68
2022/02/15 15:08:40;;;;;;;7.27;1.50;;;;;;;8.79;59.52;100318.56;20853558;28;20494;-67
2022/02/15 15:18:41;;;;;;;4.07;1.00;;;;;;;8.65;61.28;100308.25;20857500;28;20527;-67
2022/02/15 15:28:44;;;;;;;4.82;1.20;;;;;;;8.63;62.12;100324.81;20852840;28;20053;-68
2022/02/15 15:38:50;;;;;;;3.70;1.23;;;;;;;8.41;64.32;100317.16;20852154;28;20045;-68
2022/02/15 15:48:52;;;;;;;5.38;1.50;;;;;;;8.14;67.62;100327.75;20851966;28;20046;-68
2022/02/15 15:58:53;;;;;;;7.40;2.60;;;;;;;8.18;67.12;100312.09;20852254;28;20049;-68
2022/02/15 16:08:54;;;;;;;7.05;1.85;;;;;;;7.85;68.33;100313.16;20851446;28;20045;-68
2022/02/15 16:18:58;;;;;;;9.40;2.10;;;;;;;7.70;69.87;100331.50;20851143;28;20388;-68
2022/02/15 16:29:00;;;;;;;4.63;1.35;;;;;;;7.47;68.20;100342.03;20852498;28;20520;-68
2022/02/15 16:39:01;;;;;;;6.32;1.45;;;;;;;7.34;68.32;100336.03;20846331;28;20057;-68
2022/02/15 16:49:03;;;;;;;7.78;1.98;;;;;;;7.17;69.03;100340.41;20850013;28;20487;-69
2022/02/15 16:59:05;;;;;;;5.38;1.48;;;;;;;7.07;71.43;100346.50;20850438;28;20049;-67
2022/02/15 17:09:06;;;;;;;9.90;3.22;;;;;;;6.97;71.27;100319.63;20860166;28;20045;-68
2022/02/15 17:19:08;;;;;;;9.15;3.42;;;;;;;6.93;71.33;100329.19;20865410;28;20111;-69
2022/02/15 17:29:12;;;;;;;5.47;2.27;;;;;;;6.71;73.39;100337.91;20861992;28;20410;-68
2022/02/15 17:39:15;;;;;;;5.15;2.00;;;;;;;6.54;74.81;100334.44;20860768;28;20045;-69
2022/02/15 17:49:18;;;;;;;5.68;3.25;;;;;;;6.42;77.02;100337.94;20860611;28;20450;-68
2022/02/15 17:59:27;;;;;;;5.70;2.22;;;;;;;6.43;76.60;100337.91;20859796;28;20440;-68
2022/02/15 18:09:29;;;;;;;7.15;2.22;;;;;;;6.24;77.28;100336.19;20860370;28;20045;-68
2022/02/15 18:19:31;;;;;;;4.32;1.80;;;;;;;6.08;78.04;100350.00;20859298;28;20054;-68
2022/02/15 18:29:33;;;;;;;5.70;2.05;;;;;;;5.93;79.72;100343.03;20857386;28;20095;-68
2022/02/15 18:39:35;;;;;;;7.25;2.78;;;;;;;5.94;80.59;100363.00;20856788;28;20060;-68
2022/02/15 18:49:37;;;;;;;8.27;2.65;;;;;;;5.91;80.91;100358.63;20859307;28;20052;-68
2022/02/15 18:59:42;;;;;;;7.65;2.60;;;;;;;5.94;80.26;100350.00;20861232;28;20137;-68
2022/02/15 19:09:43;;;;;;;4.78;1.60;;;;;;;6.04;77.89;100349.16;20852981;28;20455;-68
2022/02/15 19:19:46;;;;;;;7.15;2.17;;;;;;;6.13;77.81;100361.25;20852619;28;20550;-68
2022/02/15 19:29:49;;;;;;;5.18;2.10;;;;;;;6.08;79.88;100365.59;20850918;28;20048;-68
2022/02/15 19:39:53;;;;;;;6.10;2.07;;;;;;;6.02;82.32;100363.00;20850464;28;20057;-68
2022/02/15 19:49:55;;;;;;;4.85;2.00;;;;;;;5.94;83.86;100349.09;20850752;28;20045;-68
2022/02/15 19:59:59;;;;;;;4.72;2.20;;;;;;;5.99;83.13;100344.78;20851605;28;20049;-68
2022/02/15 20:10:00;;;;;;;6.22;2.40;;;;;;;6.11;80.87;100318.81;20848172;28;20548;-68
2022/02/15 20:20:02;;;;;;;7.95;2.05;;;;;;;6.18;79.09;100312.78;20849868;28;20400;-68
2022/02/15 20:30:04;;;;;;;7.82;2.13;;;;;;;6.06;79.45;100290.22;20845532;28;20495;-68
2022/02/15 20:40:09;;;;;;;8.35;2.13;;;;;;;5.96;81.05;100279.81;20854847;28;20057;-68
2022/02/15 20:50:11;;;;;;;5.93;1.90;;;;;;;6.07;79.79;100280.69;20869573;28;20093;-68
2022/02/15 21:00:13;;;;;;;7.07;2.22;;;;;;;6.03;80.50;100290.22;21058270;23;20098;-71
2022/02/15 21:10:14;;;;;;;5.65;2.25;;;;;;;5.90;81.55;100273.72;21073260;28;20040;-70
2022/02/15 21:20:16;;;;;;;6.75;2.40;;;;;;;5.97;81.51;100272.03;21071302;28;20412;-68
2022/02/15 21:30:17;;;;;;;9.40;2.53;;;;;;;6.04;80.64;100268.56;21070741;28;20117;-69
2022/02/15 21:40:19;;;;;;;8.98;2.50;;;;;;;6.06;80.14;100263.38;21071040;28;20047;-69
2022/02/15 21:50:22;;;;;;;7.05;2.40;;;;;;;6.08;79.67;100251.22;21069369;28;20378;-68
2022/02/15 22:00:23;;;;;;;6.18;2.13;;;;;;;6.19;77.72;100239.13;21068691;28;20047;-69
2022/02/15 22:10:24;;;;;;;5.40;1.95;;;;;;;6.24;77.17;100210.50;21067859;28;20043;-69
2022/02/15 22:20:27;;;;;;;6.45;1.98;;;;;;;6.12;77.52;100199.25;21061260;28;20070;-68
2022/02/15 22:30:30;;;;;;;4.70;2.00;;;;;;;6.20;77.13;100182.78;21063461;28;20040;-68
2022/02/15 22:40:32;;;;;;;10.82;2.88;;;;;;;6.07;77.98;100171.53;21065289;28;20055;-67
2022/02/15 22:50:34;;;;;;;7.22;2.17;;;;;;;6.12;77.15;100164.59;21064221;28;20052;-68
2022/02/15 23:00:38;;;;;;;7.22;1.73;;;;;;;6.14;79.68;100150.72;21062222;28;20098;-69
2022/02/15 23:20:47;;;;;;;5.15;1.50;;;;;;;6.12;78.02;100138.59;21070268;28;20056;-68
2022/02/15 23:30:49;;;;;;;6.25;1.60;;;;;;;6.17;77.41;100131.66;21069176;28;20048;-69
2022/02/15 23:40:50;;;;;;;6.80;1.80;;;;;;;6.33;76.04;100122.97;21069284;28;20056;-67
2022/02/15 23:50:52;;;;;;;5.30;1.60;;;;;;;6.32;75.38;100100.41;21067503;28;20101;-70
